Time;durP1;ratioP1;P1;durP2;ratioP2;P2;SDS_P1;SDS_P2;PMS_P1;PMS_P2;Temp;Humidity;BMP_temperature;BMP_pressure;BME280_temperature;BME280_humidity;BME280_pressure;Samples;Min_cycle;Max_cycle;Signal;HPM_P1;HPM_P2
2022/11/01 00:02:13;;;;;;;15.43;8.45;;;13.40;99.90;;;;;;5138635;27;20450;-75
2022/11/01 00:04:38;;;;;;;21.90;9.45;;;13.70;99.90;;;;;;5129114;27;20038;-75
2022/11/01 00:07:04;;;;;;;12.68;8.20;;;14.40;99.90;;;;;;5122267;27;20050;-74
2022/11/01 00:09:30;;;;;;;16.00;8.65;;;13.40;99.90;;;;;;5115857;27;20045;-75
2022/11/01 00:11:56;;;;;;;16.25;8.48;;;13.40;99.90;;;;;;5084998;27;20476;-76
2022/11/01 00:14:21;;;;;;;18.60;9.20;;;13.50;99.90;;;;;;5121250;27;20050;-75
2022/11/01 00:16:48;;;;;;;17.33;7.63;;;13.50;99.90;;;;;;5138877;27;20030;-76
2022/11/01 00:19:13;;;;;;;15.18;8.82;;;13.50;99.90;;;;;;5109916;27;20165;-75
2022/11/01 00:21:39;;;;;;;17.60;8.15;;;13.50;99.90;;;;;;5144009;27;20070;-75
2022/11/01 00:24:05;;;;;;;19.85;8.50;;;13.50;99.90;;;;;;5139638;27;20106;-75
2022/11/01 00:26:30;;;;;;;12.75;8.80;;;13.50;99.90;;;;;;5134808;27;20042;-74
2022/11/01 00:28:56;;;;;;;18.88;7.65;;;13.50;99.90;;;;;;5122537;27;20103;-76
2022/11/01 00:31:22;;;;;;;18.42;8.35;;;13.50;99.90;;;;;;5143260;27;20049;-76
2022/11/01 00:33:48;;;;;;;14.45;8.30;;;13.50;99.90;;;;;;5105891;27;20477;-75
2022/11/01 00:36:14;;;;;;;18.77;8.35;;;13.50;99.90;;;;;;5131594;27;20064;-74
2022/11/01 00:38:40;;;;;;;17.50;7.82;;;13.50;99.90;;;;;;5119470;27;20098;-74
2022/11/01 00:41:06;;;;;;;13.80;8.20;;;12.90;99.90;;;;;;5128990;27;20042;-75
2022/11/01 00:43:33;;;;;;;14.90;8.05;;;13.50;99.90;;;;;;5140674;27;20034;-75
2022/11/01 00:45:59;;;;;;;12.80;6.90;;;13.60;99.90;;;;;;5141806;27;20126;-75
2022/11/01 00:48:25;;;;;;;14.10;7.70;;;13.40;99.90;;;;;;5129708;27;20564;-75
2022/11/01 00:50:51;;;;;;;11.35;8.10;;;13.60;99.90;;;;;;5115095;27;20043;-75
2022/11/01 00:53:17;;;;;;;12.70;7.93;;;13.60;99.90;;;;;;5142313;27;20031;-76
2022/11/01 00:55:42;;;;;;;16.70;7.57;;;13.60;99.90;;;;;;5111366;27;20134;-75
2022/11/01 00:58:08;;;;;;;19.30;8.13;;;13.60;99.90;;;;;;5141841;27;20118;-77
2022/11/01 01:00:35;;;;;;;11.57;6.88;;;13.60;99.90;;;;;;5131328;27;20074;-76
2022/11/01 01:03:02;;;;;;;11.23;7.07;;;13.70;99.90;;;;;;5140341;27;20042;-78
2022/11/01 01:05:28;;;;;;;12.38;7.55;;;13.60;99.90;;;;;;5131882;27;20471;-75
2022/11/01 01:07:54;;;;;;;13.57;8.70;;;13.60;99.90;;;;;;5110419;27;20039;-78
2022/11/01 01:10:20;;;;;;;14.73;7.75;;;13.70;99.90;;;;;;5136087;27;20039;-77
2022/11/01 01:12:45;;;;;;;20.33;8.40;;;14.00;99.90;;;;;;5147087;27;20030;-78
2022/11/01 01:15:11;;;;;;;16.00;7.32;;;13.70;99.90;;;;;;5130905;27;20050;-77
2022/11/01 01:17:37;;;;;;;16.05;7.82;;;13.60;99.90;;;;;;5129093;27;20062;-77
2022/11/01 01:20:03;;;;;;;12.88;8.25;;;13.60;99.90;;;;;;5142147;27;20482;-77
2022/11/01 01:22:29;;;;;;;16.80;7.50;;;13.60;99.90;;;;;;5109750;27;20173;-77
2022/11/01 01:24:55;;;;;;;14.55;7.28;;;14.30;99.90;;;;;;5132312;27;20054;-77
2022/11/01 01:27:21;;;;;;;12.57;7.50;;;13.70;99.90;;;;;;5111122;27;20131;-77
2022/11/01 01:29:46;;;;;;;14.75;8.00;;;13.60;99.90;;;;;;5108487;27;20121;-77
2022/11/01 01:32:17;;;;;;;14.60;8.23;;;13.70;99.90;;;;;;5111480;27;20604;-75
2022/11/01 01:34:43;;;;;;;17.55;7.90;;;13.70;99.90;;;;;;5126631;27;20405;-75
2022/11/01 01:37:11;;;;;;;13.82;7.15;;;14.10;99.90;;;;;;5140668;27;20518;-75
2022/11/01 01:39:37;;;;;;;16.58;7.50;;;13.70;99.90;;;;;;5110442;27;20042;-74
2022/11/01 01:42:14;;;;;;;16.67;7.50;;;13.70;99.90;;;;;;5130202;27;20034;-77
2022/11/01 01:44:48;;;;;;;23.58;7.28;;;13.70;99.90;;;;;;5110702;27;20821;-78
2022/11/01 01:47:29;;;;;;;11.50;7.32;;;13.70;99.90;;;;;;5131675;27;20115;-77
2022/11/01 01:50:00;;;;;;;9.27;6.63;;;13.70;99.90;;;;;;5127331;27;20035;-78
2022/11/01 01:52:29;;;;;;;14.10;7.15;;;13.70;99.90;;;;;;5140375;27;20054;-75
2022/11/01 01:54:57;;;;;;;13.93;7.65;;;13.70;99.90;;;;;;5133463;27;20639;-77
2022/11/01 01:57:24;;;;;;;20.45;8.48;;;14.10;99.90;;;;;;5131656;27;20046;-76
2022/11/01 01:59:51;;;;;;;10.85;7.15;;;13.70;99.90;;;;;;5131639;27;20069;-76
2022/11/01 02:02:18;;;;;;;12.45;6.88;;;13.70;99.90;;;;;;5141151;27;20078;-78
2022/11/01 02:04:48;;;;;;;10.48;6.95;;;13.70;99.90;;;;;;5131921;27;20632;-76
2022/11/01 02:07:14;;;;;;;13.25;7.95;;;13.70;99.90;;;;;;5125565;27;20039;-74
2022/11/01 02:09:42;;;;;;;15.13;7.97;;;13.70;99.90;;;;;;5111831;27;20733;-76
2022/11/01 02:12:10;;;;;;;12.90;6.85;;;13.70;99.90;;;;;;5121999;27;20031;-77
2022/11/01 02:14:38;;;;;;;13.48;6.47;;;13.70;99.90;;;;;;5128825;27;20046;-75
2022/11/01 02:17:29;;;;;;;15.27;7.00;;;13.70;99.90;;;;;;5125725;27;20095;-75
2022/11/01 02:20:08;;;;;;;10.57;6.95;;;13.90;99.90;;;;;;5107119;27;20490;-76
2022/11/01 02:22:53;;;;;;;14.02;6.85;;;13.80;99.90;;;;;;5131476;27;20043;-76
2022/11/01 02:25:28;;;;;;;11.50;6.93;;;13.70;99.90;;;;;;5116683;27;20101;-76
2022/11/01 02:28:33;;;;;;;17.02;6.75;;;13.70;99.90;;;;;;5128511;27;20445;-75
2022/11/01 02:31:10;;;;;;;;;;;13.80;99.90;;;;;;5122821;27;20086;-75
2022/11/01 02:33:52;;;;;;;14.88;6.90;;;13.70;99.90;;;;;;5113726;27;19923;-75
2022/11/01 02:36:29;;;;;;;12.23;6.60;;;13.70;99.90;;;;;;5146553;27;20038;-77
2022/11/01 02:39:04;;;;;;;13.75;6.72;;;13.70;99.90;;;;;;5122949;27;20039;-75
2022/11/01 02:41:32;;;;;;;13.88;7.35;;;13.90;99.90;;;;;;5146183;27;20050;-77
2022/11/01 02:44:02;;;;;;;11.23;6.47;;;13.80;99.90;;;;;;5149946;27;20042;-74
2022/11/01 02:49:18;;;;;;;12.13;6.75;;;13.30;99.90;;;;;;5134766;27;20370;-75
2022/11/01 02:51:45;;;;;;;13.57;6.97;;;13.70;99.90;;;;;;5141259;27;20042;-77
2022/11/01 02:54:26;;;;;;;11.52;6.28;;;13.70;99.90;;;;;;5128936;27;20397;-76
2022/11/01 02:56:52;;;;;;;11.18;6.88;;;13.70;99.90;;;;;;5138118;27;20138;-76
2022/11/01 02:59:23;;;;;;;16.35;6.97;;;13.70;99.90;;;;;;5131133;27;20039;-76
2022/11/01 03:02:09;;;;;;;10.13;5.45;;;13.70;99.90;;;;;;5129587;27;20494;-77
2022/11/01 03:04:35;;;;;;;16.40;6.97;;;13.70;99.90;;;;;;5124196;27;20050;-75
2022/11/01 03:07:06;;;;;;;15.70;7.35;;;13.70;99.90;;;;;;5131788;27;20042;-79
2022/11/01 03:09:33;;;;;;;17.92;7.25;;;14.40;99.90;;;;;;5149939;27;20053;-78
2022/11/01 03:12:17;;;;;;;11.32;6.22;;;13.80;99.90;;;;;;5142794;27;20047;-75
2022/11/01 03:14:54;;;;;;;9.80;6.82;;;13.80;99.90;;;;;;5113625;27;20073;-77
2022/11/01 03:17:56;;;;;;;16.27;6.70;;;13.80;99.90;;;;;;5140490;27;20390;-76
2022/11/01 03:20:46;;;;;;;12.88;6.28;;;13.80;99.90;;;;;;5042828;27;20112;-78
2022/11/01 03:23:24;;;;;;;14.68;6.40;;;13.80;99.90;;;;;;5107758;27;20035;-75
2022/11/01 03:25:56;;;;;;;15.23;7.00;;;13.80;99.90;;;;;;5141258;27;20089;-74
2022/11/01 03:28:23;;;;;;;12.02;5.28;;;13.90;99.90;;;;;;5107724;27;20089;-75
2022/11/01 03:30:57;;;;;;;12.73;6.10;;;13.80;99.90;;;;;;5130448;27;20046;-76
2022/11/01 03:33:24;;;;;;;;;;;13.80;99.90;;;;;;5122499;27;20091;-76
2022/11/01 03:35:53;;;;;;;12.82;5.88;;;13.90;99.90;;;;;;5130390;27;19929;-76
2022/11/01 03:38:23;;;;;;;13.45;6.80;;;13.90;99.90;;;;;;5110513;27;20447;-77
2022/11/01 03:40:54;;;;;;;12.70;6.20;;;13.90;99.90;;;;;;5131997;27;20538;-76
2022/11/01 03:43:24;;;;;;;11.48;5.63;;;14.00;99.90;;;;;;5127466;27;20091;-77
2022/11/01 03:45:49;;;;;;;11.15;5.30;;;14.20;99.90;;;;;;5129831;27;20038;-76
2022/11/01 03:48:15;;;;;;;13.57;5.88;;;14.00;99.90;;;;;;5126177;27;20042;-77
2022/11/01 03:50:49;;;;;;;8.23;5.15;;;14.10;99.90;;;;;;5126338;27;20042;-75
2022/11/01 03:53:15;;;;;;;;;;;14.10;99.90;;;;;;5126770;27;20493;-77
2022/11/01 03:55:41;;;;;;;9.60;5.45;;;14.00;99.90;;;;;;5105946;27;20029;-75
2022/11/01 03:58:08;;;;;;;13.40;5.38;;;14.10;99.90;;;;;;5115238;27;20417;-76
2022/11/01 04:00:37;;;;;;;15.43;5.30;;;14.10;99.90;;;;;;5132755;27;20172;-77
2022/11/01 04:03:03;;;;;;;17.90;5.88;;;14.50;99.90;;;;;;5122310;27;20035;-77
2022/11/01 04:05:31;;;;;;;14.43;5.35;;;13.90;99.90;;;;;;5125407;27;20030;-74
2022/11/01 04:07:57;;;;;;;8.93;5.05;;;14.10;99.90;;;;;;5141649;27;20095;-78
2022/11/01 04:10:24;;;;;;;11.35;5.13;;;14.20;99.90;;;;;;5124240;27;20043;-77
2022/11/01 04:12:51;;;;;;;13.95;5.38;;;14.60;99.90;;;;;;5148913;27;20362;-76
2022/11/01 04:21:10;;;;;;;10.25;5.30;;;14.30;99.90;;;;;;5144938;27;20557;-77
2022/11/01 04:23:36;;;;;;;;;;;14.30;99.90;;;;;;5131254;27;20122;-74
2022/11/01 04:26:04;;;;;;;10.27;5.00;;;14.30;99.90;;;;;;5115206;27;20014;-75
2022/11/01 04:28:29;;;;;;;9.90;5.43;;;14.40;99.90;;;;;;5138624;27;20310;-77
2022/11/01 04:30:55;;;;;;;14.63;5.53;;;14.70;99.90;;;;;;5118689;27;20091;-77
2022/11/01 04:33:21;;;;;;;8.70;5.03;;;14.90;99.90;;;;;;5145904;27;20524;-75
2022/11/01 04:35:47;;;;;;;10.68;4.78;;;14.80;99.90;;;;;;5128158;27;20035;-75
2022/11/01 04:38:13;;;;;;;13.10;5.40;;;14.60;99.90;;;;;;5136196;27;20054;-75
2022/11/01 04:40:40;;;;;;;12.43;4.70;;;14.90;99.90;;;;;;5137131;27;20039;-74
2022/11/01 04:43:06;;;;;;;8.77;4.32;;;15.00;99.90;;;;;;5145763;27;20058;-74
2022/11/01 04:45:32;;;;;;;6.90;3.92;;;14.70;99.90;;;;;;5145880;27;20477;-75
2022/11/01 04:48:06;;;;;;;9.27;4.78;;;15.10;99.90;;;;;;5149888;27;20034;-76
2022/11/01 04:50:33;;;;;;;13.50;5.10;;;14.80;99.90;;;;;;5114733;27;20042;-76
2022/11/01 04:52:59;;;;;;;11.57;3.90;;;15.40;99.90;;;;;;5140427;27;20035;-77
2022/11/01 04:55:25;;;;;;;8.25;4.38;;;14.80;99.90;;;;;;5151019;27;20049;-75
2022/11/01 04:57:51;;;;;;;8.65;4.07;;;14.90;99.90;;;;;;5148655;27;20032;-75
2022/11/01 05:00:17;;;;;;;6.80;3.50;;;15.00;99.90;;;;;;5130937;27;20039;-77
2022/11/01 05:02:43;;;;;;;12.07;3.83;;;15.60;99.90;;;;;;5142816;27;20041;-76
2022/11/01 05:05:10;;;;;;;13.85;4.82;;;15.00;99.90;;;;;;5113440;27;20474;-77
2022/11/01 05:07:36;;;;;;;12.23;4.35;;;15.70;99.90;;;;;;5133404;27;20034;-77
2022/11/01 05:10:02;;;;;;;5.20;4.00;;;15.60;99.90;;;;;;5132703;27;20386;-76
2022/11/01 05:12:28;;;;;;;10.20;4.22;;;15.10;99.90;;;;;;5141566;27;20057;-75
2022/11/01 05:14:53;;;;;;;11.63;3.92;;;16.00;99.90;;;;;;5131964;27;20397;-75
2022/11/01 05:17:19;;;;;;;12.57;3.88;;;15.10;99.90;;;;;;5111464;27;20042;-74
2022/11/01 05:19:45;;;;;;;9.38;4.00;;;15.10;99.90;;;;;;5114215;27;20046;-73
2022/11/01 05:22:11;;;;;;;8.65;3.60;;;15.10;99.90;;;;;;5097963;27;20507;-76
2022/11/01 05:24:36;;;;;;;4.90;3.38;;;15.20;99.90;;;;;;5142081;27;20118;-78
2022/11/01 05:27:02;;;;;;;10.40;3.90;;;15.20;99.90;;;;;;5140170;27;20113;-76
2022/11/01 05:29:28;;;;;;;7.80;3.92;;;15.20;99.90;;;;;;5117682;27;20099;-75
2022/11/01 05:31:54;;;;;;;7.43;3.45;;;15.20;99.90;;;;;;5111666;27;20130;-77
2022/11/01 05:34:19;;;;;;;10.30;3.72;;;16.30;99.90;;;;;;5128393;27;20035;-78
2022/11/01 05:36:45;;;;;;;9.60;4.13;;;15.20;99.90;;;;;;5131714;27;20078;-75
2022/11/01 05:39:11;;;;;;;12.75;4.55;;;15.20;99.90;;;;;;5138964;27;20432;-79
2022/11/01 05:41:37;;;;;;;7.63;2.88;;;15.20;99.90;;;;;;5146599;27;20035;-79
2022/11/01 05:44:03;;;;;;;4.78;2.58;;;15.20;99.90;;;;;;5108946;27;20035;-77
2022/11/01 05:46:28;;;;;;;3.83;2.55;;;15.20;99.90;;;;;;5129050;27;20405;-78
2022/11/01 05:48:54;;;;;;;8.75;2.10;;;15.10;99.90;;;;;;5143364;27;20095;-75
2022/11/01 05:51:20;;;;;;;5.80;1.55;;;15.10;99.90;;;;;;5110107;27;20093;-78
2022/11/01 05:53:49;;;;;;;9.13;1.95;;;15.00;99.90;;;;;;5126131;27;20043;-75
2022/11/01 05:56:15;;;;;;;9.93;1.48;;;15.00;99.90;;;;;;5123072;27;20561;-77
2022/11/01 05:58:42;;;;;;;7.13;1.35;;;15.10;99.90;;;;;;5112559;27;20439;-76
2022/11/01 06:01:08;;;;;;;4.97;1.13;;;15.00;99.90;;;;;;5126868;27;20039;-74
2022/11/01 06:03:35;;;;;;;4.07;0.88;;;15.70;99.90;;;;;;5106854;27;20047;-74
2022/11/01 06:06:02;;;;;;;3.20;0.70;;;14.80;99.90;;;;;;5103684;27;20118;-77
2022/11/01 06:08:27;;;;;;;4.05;0.93;;;14.70;99.90;;;;;;5123504;27;20334;-75
2022/11/01 06:11:01;;;;;;;3.70;0.90;;;14.70;99.90;;;;;;5124213;27;20545;-78
2022/11/01 06:13:27;;;;;;;2.30;0.60;;;14.70;99.90;;;;;;5111893;27;20039;-76
2022/11/01 06:16:00;;;;;;;3.13;0.60;;;15.10;99.90;;;;;;5126259;27;20045;-75
2022/11/01 06:18:26;;;;;;;5.57;0.60;;;14.60;99.90;;;;;;5140029;27;20043;-77
2022/11/01 06:20:52;;;;;;;2.08;0.50;;;14.60;99.90;;;;;;5114971;27;20054;-79
2022/11/01 06:23:18;;;;;;;1.52;0.70;;;14.50;99.90;;;;;;5149244;27;20098;-78
2022/11/01 06:25:44;;;;;;;5.72;0.60;;;14.50;99.90;;;;;;5142970;27;20122;-76
2022/11/01 06:28:09;;;;;;;3.00;0.40;;;14.30;99.90;;;;;;5110653;27;20031;-74
2022/11/01 06:30:37;;;;;;;6.78;1.20;;;14.30;99.90;;;;;;5144574;27;20458;-78
2022/11/01 06:33:05;;;;;;;2.67;1.17;;;14.30;99.90;;;;;;5114940;27;20047;-75
2022/11/01 06:35:33;;;;;;;3.47;0.90;;;14.10;99.90;;;;;;5126688;27;20084;-75
2022/11/01 06:38:03;;;;;;;4.82;0.80;;;14.10;99.90;;;;;;5104843;27;20351;-75
2022/11/01 06:40:29;;;;;;;3.30;0.88;;;14.10;99.90;;;;;;5107710;27;20051;-74
2022/11/01 06:43:01;;;;;;;3.20;0.68;;;14.10;99.90;;;;;;5112497;27;20058;-75
2022/11/01 06:45:27;;;;;;;5.25;0.65;;;14.10;99.90;;;;;;5130731;27;20043;-76
2022/11/01 06:47:53;;;;;;;7.93;0.70;;;14.00;99.90;;;;;;5111815;27;20045;-74
2022/11/01 06:50:18;;;;;;;2.45;0.50;;;14.10;99.90;;;;;;5142187;27;20039;-77
2022/11/01 06:52:44;;;;;;;4.80;0.90;;;14.00;99.90;;;;;;5121604;27;20039;-77
2022/11/01 06:55:10;;;;;;;10.25;0.98;;;14.60;99.90;;;;;;5152239;27;20034;-76
2022/11/01 06:57:36;;;;;;;8.88;1.10;;;13.90;99.90;;;;;;5117928;27;20043;-76
2022/11/01 07:00:02;;;;;;;4.90;1.02;;;13.80;99.90;;;;;;5123080;27;20494;-77
2022/11/01 07:02:28;;;;;;;8.43;0.98;;;13.80;99.90;;;;;;5143044;27;20077;-76
2022/11/01 07:04:53;;;;;;;6.93;1.45;;;14.30;99.90;;;;;;5123228;27;20070;-76
2022/11/01 07:07:19;;;;;;;12.80;1.75;;;13.70;99.90;;;;;;5110429;27;20062;-74
2022/11/01 07:09:45;;;;;;;7.75;1.60;;;13.70;99.90;;;;;;5145995;27;20542;-74
2022/11/01 07:12:10;;;;;;;9.50;1.63;;;13.60;99.90;;;;;;5126363;27;20110;-75
2022/11/01 07:14:36;;;;;;;7.78;1.15;;;14.30;99.90;;;;;;5107945;27;20043;-74
2022/11/01 07:17:01;;;;;;;15.63;1.80;;;13.60;99.90;;;;;;5145739;27;20062;-75
2022/11/01 07:19:27;;;;;;;10.25;1.83;;;14.30;99.90;;;;;;5128677;27;20038;-75
2022/11/01 07:21:52;;;;;;;8.25;1.25;;;13.50;99.90;;;;;;5140634;27;20031;-76
2022/11/01 07:24:18;;;;;;;7.05;1.40;;;13.50;99.90;;;;;;5110131;27;20201;-76
2022/11/01 07:26:44;;;;;;;16.13;1.48;;;13.50;99.90;;;;;;5147713;27;20039;-75
2022/11/01 07:29:10;;;;;;;10.82;1.60;;;13.60;99.90;;;;;;5145799;27;20034;-76
2022/11/01 07:31:37;;;;;;;11.30;2.72;;;13.60;99.90;;;;;;5121507;27;20051;-77
2022/11/01 07:34:04;;;;;;;6.07;1.15;;;13.90;99.90;;;;;;5147895;27;20331;-73
2022/11/01 07:36:29;;;;;;;14.40;1.60;;;13.60;99.90;;;;;;5143869;27;20456;-79
2022/11/01 07:38:55;;;;;;;15.90;2.33;;;13.60;99.90;;;;;;5122066;27;20058;-76
2022/11/01 07:41:20;;;;;;;8.13;1.60;;;13.60;99.90;;;;;;5101568;27;20047;-76
2022/11/01 07:43:46;;;;;;;10.70;1.77;;;13.60;99.90;;;;;;5130718;27;20447;-76
2022/11/01 07:46:12;;;;;;;14.70;2.40;;;13.60;99.90;;;;;;5115586;27;20043;-75
2022/11/01 07:48:38;;;;;;;10.48;1.38;;;13.60;99.90;;;;;;5130912;27;20481;-76
2022/11/01 07:51:05;;;;;;;11.88;1.65;;;14.20;99.90;;;;;;5150340;27;20031;-75
2022/11/01 07:53:31;;;;;;;11.60;2.17;;;13.70;99.90;;;;;;5130576;27;20041;-75
2022/11/01 07:55:59;;;;;;;11.25;1.60;;;13.70;99.90;;;;;;5148299;27;20189;-77
2022/11/01 07:58:24;;;;;;;10.27;1.88;;;14.40;99.90;;;;;;5143471;27;20035;-77
2022/11/01 08:00:50;;;;;;;10.68;1.55;;;14.70;99.90;;;;;;5148062;27;20528;-76
2022/11/01 08:03:18;;;;;;;10.43;1.90;;;13.60;99.90;;;;;;5145875;27;20468;-75
2022/11/01 08:05:45;;;;;;;14.02;2.60;;;13.70;99.90;;;;;;5146206;27;20061;-75
2022/11/01 08:08:11;;;;;;;8.38;1.67;;;14.60;99.90;;;;;;5109484;27;20049;-74
2022/11/01 08:10:37;;;;;;;8.23;1.75;;;13.80;99.90;;;;;;5122284;27;20059;-74
2022/11/01 08:13:12;;;;;;;16.83;2.03;;;14.30;99.90;;;;;;5145763;27;20074;-75
2022/11/01 08:15:38;;;;;;;14.18;1.52;;;13.70;99.90;;;;;;5145898;27;20099;-75
2022/11/01 08:18:04;;;;;;;15.52;1.90;;;13.80;99.90;;;;;;5125192;27;20038;-75
2022/11/01 08:20:29;;;;;;;19.75;2.33;;;13.80;99.90;;;;;;5121722;28;20469;-74
2022/11/01 08:22:55;;;;;;;9.65;2.10;;;14.40;99.90;;;;;;5109803;27;20042;-74
2022/11/01 08:25:21;;;;;;;12.90;2.05;;;14.00;99.90;;;;;;5141356;27;20066;-75
2022/11/01 08:27:47;;;;;;;15.27;2.20;;;14.00;99.90;;;;;;5141597;27;20065;-75
2022/11/01 08:30:13;;;;;;;12.82;2.63;;;13.90;99.90;;;;;;5121696;27;20045;-74
2022/11/01 08:32:39;;;;;;;10.88;1.85;;;13.90;99.90;;;;;;5143201;27;20084;-75
2022/11/01 08:35:05;;;;;;;17.58;3.03;;;13.90;99.90;;;;;;5123195;27;20085;-75
2022/11/01 08:37:31;;;;;;;17.35;2.42;;;13.90;99.90;;;;;;5107885;28;20420;-74
2022/11/01 08:39:56;;;;;;;13.48;2.85;;;14.00;99.90;;;;;;5126005;27;20038;-74
2022/11/01 08:42:22;;;;;;;13.93;1.83;;;14.90;99.90;;;;;;5120476;27;20050;-74
2022/11/01 08:44:47;;;;;;;16.40;2.13;;;14.00;99.90;;;;;;5109032;27;20045;-74
2022/11/01 08:47:13;;;;;;;13.75;2.75;;;14.00;99.90;;;;;;5115185;27;20119;-75
2022/11/01 08:49:39;;;;;;;16.85;2.80;;;14.50;99.90;;;;;;5125155;27;20501;-74
2022/11/01 08:52:04;;;;;;;14.18;2.55;;;14.80;99.90;;;;;;5122080;27;20038;-74
2022/11/01 08:54:31;;;;;;;16.38;3.15;;;14.00;99.90;;;;;;5122104;28;20035;-74
2022/11/01 08:56:57;;;;;;;17.85;2.75;;;13.80;99.90;;;;;;5124344;27;20125;-75
2022/11/01 08:59:22;;;;;;;23.92;3.55;;;13.80;99.90;;;;;;5138820;27;20109;-75
2022/11/01 09:01:49;;;;;;;20.92;2.88;;;14.50;99.90;;;;;;5112121;27;20065;-75
2022/11/01 09:04:16;;;;;;;10.43;2.42;;;13.80;99.90;;;;;;5108041;27;20043;-74
2022/11/01 09:06:42;;;;;;;20.77;3.25;;;13.90;99.90;;;;;;5108246;27;20557;-74
2022/11/01 09:09:09;;;;;;;16.38;2.97;;;13.90;99.90;;;;;;5124467;27;20054;-74
2022/11/01 09:11:35;;;;;;;13.50;2.33;;;13.90;99.90;;;;;;5112631;27;20055;-74
2022/11/01 09:14:01;;;;;;;19.70;3.55;;;14.00;99.90;;;;;;5105884;27;20043;-74
2022/11/01 09:16:27;;;;;;;15.65;3.05;;;14.80;99.90;;;;;;5131842;27;20442;-75
2022/11/01 09:18:53;;;;;;;17.40;3.17;;;14.80;99.90;;;;;;5125112;27;20498;-74
2022/11/01 09:21:19;;;;;;;20.77;3.03;;;14.30;99.90;;;;;;5131298;27;20077;-75
2022/11/01 09:23:47;;;;;;;20.67;3.60;;;14.30;99.90;;;;;;5143814;27;20039;-76
2022/11/01 09:26:13;;;;;;;16.83;3.22;;;14.30;99.90;;;;;;5142891;27;20043;-75
2022/11/01 09:28:39;;;;;;;15.20;2.60;;;14.30;99.90;;;;;;5128065;27;20039;-76
2022/11/01 09:31:08;;;;;;;20.35;2.92;;;14.40;99.90;;;;;;5119597;27;20052;-75
2022/11/01 09:33:34;;;;;;;18.35;2.97;;;14.90;99.90;;;;;;5105625;27;20095;-75
2022/11/01 09:36:00;;;;;;;18.20;2.80;;;14.40;99.90;;;;;;5119589;27;20048;-75
2022/11/01 09:38:26;;;;;;;15.57;2.47;;;14.40;99.90;;;;;;5128267;27;20095;-75
2022/11/01 09:41:10;;;;;;;24.10;3.97;;;14.40;99.90;;;;;;5121086;27;20860;-75
2022/11/01 09:43:39;;;;;;;21.38;3.92;;;15.20;99.90;;;;;;5122390;27;20086;-75
2022/11/01 09:46:06;;;;;;;17.23;3.30;;;14.40;99.90;;;;;;5121445;27;20036;-75
2022/11/01 09:48:35;;;;;;;15.63;2.67;;;14.50;99.90;;;;;;5129759;27;20175;-75
2022/11/01 09:51:06;;;;;;;16.75;2.38;;;14.50;99.90;;;;;;5122922;27;20046;-75
2022/11/01 09:53:32;;;;;;;17.30;3.65;;;14.60;99.90;;;;;;5124067;27;20047;-74
2022/11/01 09:56:24;;;;;;;14.75;2.83;;;15.30;99.90;;;;;;5124967;27;20051;-75
2022/11/01 09:59:35;;;;;;;18.10;3.67;;;14.60;99.90;;;;;;5119825;27;20035;-75
2022/11/01 10:02:38;;;;;;;19.42;2.38;;;14.70;99.90;;;;;;5084104;27;20051;-75
2022/11/01 10:05:25;;;;;;;20.33;2.42;;;14.70;99.90;;;;;;5125391;27;20050;-75
2022/11/01 10:08:04;;;;;;;18.33;2.38;;;14.80;99.90;;;;;;5119173;27;20490;-76
2022/11/01 10:10:49;;;;;;;19.58;2.78;;;14.80;99.90;;;;;;5104382;27;20074;-74
2022/11/01 10:13:27;;;;;;;18.63;3.78;;;14.80;99.90;;;;;;5103579;27;20047;-74
2022/11/01 10:16:04;;;;;;;17.50;3.10;;;14.70;99.90;;;;;;5100675;28;20060;-74
2022/11/01 10:18:36;;;;;;;17.98;3.63;;;14.70;99.90;;;;;;5105084;27;20391;-74
2022/11/01 10:21:08;;;;;;;22.08;3.88;;;14.80;99.90;;;;;;5124697;27;20047;-75
2022/11/01 10:23:50;;;;;;;14.93;3.20;;;14.90;99.90;;;;;;5103099;27;20035;-74
2022/11/01 10:26:22;;;;;;;21.48;3.22;;;14.80;99.90;;;;;;5127633;27;20487;-74
2022/11/01 10:29:06;;;;;;;23.00;3.67;;;14.80;99.90;;;;;;5118480;27;20054;-75
2022/11/01 10:31:39;;;;;;;16.20;2.95;;;14.80;99.90;;;;;;5103159;27;20490;-75
2022/11/01 10:34:28;;;;;;;18.98;3.22;;;14.80;99.90;;;;;;5106601;28;20089;-74
2022/11/01 10:37:17;;;;;;;19.75;2.95;;;14.90;99.90;;;;;;5122136;27;20503;-74
2022/11/01 10:39:55;;;;;;;21.58;3.67;;;15.00;99.90;;;;;;5119959;27;20069;-74
2022/11/01 10:42:22;;;;;;;16.52;3.58;;;14.90;99.90;;;;;;5121759;27;20122;-74
2022/11/01 10:44:54;;;;;;;13.00;3.13;;;14.90;99.90;;;;;;5108799;27;20085;-75
2022/11/01 10:47:22;;;;;;;27.13;4.03;;;14.90;99.90;;;;;;5122191;27;20035;-74
2022/11/01 10:49:54;;;;;;;16.63;3.28;;;14.90;99.90;;;;;;5120446;27;20035;-75
2022/11/01 10:52:27;;;;;;;12.68;2.97;;;14.80;99.90;;;;;;5104525;27;20070;-74
2022/11/01 10:54:55;;;;;;;16.10;2.47;;;14.80;99.90;;;;;;5125616;27;20113;-74
2022/11/01 10:57:47;;;;;;;20.42;2.50;;;15.60;99.90;;;;;;5121910;27;20109;-75
2022/11/01 11:00:16;;;;;;;17.98;3.33;;;14.70;99.90;;;;;;5118364;27;20046;-74
2022/11/01 11:03:18;;;;;;;15.35;3.00;;;14.60;99.90;;;;;;5114678;27;20493;-75
2022/11/01 11:05:45;;;;;;;12.50;2.25;;;14.90;99.90;;;;;;5100639;27;20043;-75
2022/11/01 11:08:20;;;;;;;22.08;3.53;;;14.60;99.90;;;;;;5123383;27;20773;-74
2022/11/01 11:10:47;;;;;;;19.83;3.30;;;14.70;99.90;;;;;;5099948;27;20400;-74
2022/11/01 11:13:18;;;;;;;13.55;2.95;;;14.50;99.90;;;;;;5118886;27;20061;-74
2022/11/01 11:15:43;;;;;;;17.27;2.83;;;14.60;99.90;;;;;;5099784;27;20540;-74
2022/11/01 11:18:22;;;;;;;14.70;2.78;;;14.50;99.90;;;;;;5121660;27;20039;-74
2022/11/01 11:20:58;;;;;;;18.00;2.95;;;14.50;99.90;;;;;;5119693;27;20050;-74
2022/11/01 11:23:26;;;;;;;23.85;4.10;;;14.60;99.90;;;;;;5114455;27;20050;-74
2022/11/01 11:25:52;;;;;;;16.33;2.50;;;15.10;99.90;;;;;;5120137;27;20053;-75
2022/11/01 11:28:43;;;;;;;14.90;2.47;;;14.60;99.90;;;;;;5121030;27;20135;-75
2022/11/01 11:31:23;;;;;;;16.80;3.15;;;14.60;99.90;;;;;;5128198;27;20047;-73
2022/11/01 11:33:55;;;;;;;16.27;2.72;;;14.60;99.90;;;;;;5121701;27;20051;-74
2022/11/01 11:36:42;;;;;;;16.10;2.92;;;14.60;99.90;;;;;;5129724;27;20059;-75
2022/11/01 11:39:23;;;;;;;18.83;3.53;;;14.80;99.90;;;;;;5120248;27;20031;-75
2022/11/01 11:41:49;;;;;;;17.23;3.53;;;14.70;99.90;;;;;;5116799;27;20051;-74
2022/11/01 11:44:33;;;;;;;16.58;3.17;;;14.70;99.90;;;;;;5125835;27;20039;-74
2022/11/01 11:46:58;;;;;;;16.38;3.42;;;14.90;99.90;;;;;;5143523;27;20382;-73
2022/11/01 11:49:26;;;;;;;17.95;3.10;;;14.90;99.90;;;;;;5122466;27;20031;-73
2022/11/01 11:51:53;;;;;;;14.35;2.75;;;15.00;99.90;;;;;;5142483;27;20375;-74
2022/11/01 11:54:24;;;;;;;12.65;2.65;;;15.40;99.90;;;;;;5121472;27;20569;-74
2022/11/01 11:57:07;;;;;;;16.42;3.75;;;15.40;99.90;;;;;;5119554;27;20510;-73
2022/11/01 11:59:34;;;;;;;16.25;3.08;;;15.20;99.90;;;;;;5121651;27;20513;-74
2022/11/01 12:02:02;;;;;;;16.05;2.90;;;15.30;99.90;;;;;;5122986;27;20041;-74
2022/11/01 12:04:53;;;;;;;15.00;2.60;;;15.30;99.90;;;;;;5129711;27;20042;-73
2022/11/01 12:07:28;;;;;;;12.93;2.85;;;15.30;99.90;;;;;;5076571;27;20089;-75
2022/11/01 12:09:55;;;;;;;10.02;2.33;;;15.30;99.90;;;;;;5111883;28;20494;-75
2022/11/01 12:12:26;;;;;;;15.65;2.70;;;16.00;99.90;;;;;;5109197;27;20039;-75
2022/11/01 12:14:54;;;;;;;13.93;2.75;;;15.40;99.90;;;;;;5140262;27;20038;-75
2022/11/01 12:17:23;;;;;;;15.00;2.78;;;15.40;99.90;;;;;;5145211;27;20038;-74
2022/11/01 12:19:57;;;;;;;13.13;3.08;;;15.40;99.90;;;;;;5121340;27;20039;-75
2022/11/01 12:22:23;;;;;;;11.00;2.45;;;15.50;99.90;;;;;;5127727;27;20555;-72
2022/11/01 12:24:50;;;;;;;17.50;3.15;;;15.70;99.90;;;;;;5104100;27;20080;-75
2022/11/01 12:27:20;;;;;;;11.70;2.65;;;15.70;99.90;;;;;;5143226;27;20049;-75
2022/11/01 12:29:53;;;;;;;14.38;2.45;;;15.70;99.90;;;;;;5109042;27;20042;-75
2022/11/01 12:32:50;;;;;;;14.18;2.50;;;15.90;99.90;;;;;;5107941;28;20154;-75
2022/11/01 12:35:32;;;;;;;15.20;2.53;;;15.80;99.90;;;;;;5124294;27;20043;-74
2022/11/01 12:38:25;;;;;;;13.90;2.30;;;15.80;99.90;;;;;;5121330;27;20419;-75
2022/11/01 12:40:51;;;;;;;14.50;2.65;;;15.90;99.90;;;;;;5129178;27;20066;-75
2022/11/01 12:43:24;;;;;;;14.75;2.53;;;16.70;99.90;;;;;;5127407;27;20439;-75
2022/11/01 12:46:03;;;;;;;10.50;2.03;;;16.00;99.90;;;;;;5110332;27;20045;-74
2022/11/01 12:48:54;;;;;;;12.18;2.20;;;16.20;99.90;;;;;;5127336;27;20031;-75
2022/11/01 12:51:27;;;;;;;12.00;2.42;;;16.10;99.90;;;;;;5122402;27;20065;-75
2022/11/01 12:54:11;;;;;;;10.40;2.13;;;16.10;99.90;;;;;;5107189;27;20126;-75
2022/11/01 12:56:36;;;;;;;14.65;2.83;;;16.20;99.90;;;;;;5129297;27;20154;-74
2022/11/01 12:59:03;;;;;;;13.00;2.58;;;16.20;99.90;;;;;;5129059;27;20377;-76
2022/11/01 13:01:51;;;;;;;15.85;2.33;;;16.30;99.90;;;;;;5150405;27;20092;-75
2022/11/01 13:04:32;;;;;;;10.82;2.10;;;16.30;99.90;;;;;;5123232;27;20031;-75